Time;durP1;ratioP1;P1;durP2;ratioP2;P2;SDS_P1;SDS_P2;PMS_P1;PMS_P2;Temp;Humidity;BMP_temperature;BMP_pressure;BME280_temperature;BME280_humidity;BME280_pressure;Samples;Min_cycle;Max_cycle;Signal;HPM_P1;HPM_P2
2024/01/29 00:00:52;;;;;;;70.07;25.17;;;;;;;1.54;100.00;102556.05;4619879;60;1140941;-80
2024/01/29 00:05:59;;;;;;;49.43;21.27;;;;;;;1.50;100.00;102557.41;4686219;60;1140974;-80
2024/01/29 00:11:05;;;;;;;58.27;21.63;;;;;;;1.52;100.00;102549.14;4688813;60;1140752;-80
2024/01/29 00:16:10;;;;;;;86.37;28.50;;;;;;;1.54;100.00;102553.88;4690680;58;1141012;-80
2024/01/29 00:21:16;;;;;;;46.67;18.30;;;;;;;1.57;100.00;102562.55;4701328;60;1140832;-80
2024/01/29 00:26:21;;;;;;;43.27;18.60;;;;;;;1.55;100.00;102555.61;4706053;59;1140586;-80
2024/01/29 00:31:29;;;;;;;51.00;21.27;;;;;;;1.56;100.00;102559.51;4644578;60;1141011;-80
2024/01/29 00:36:34;;;;;;;37.90;16.30;;;;;;;1.60;100.00;102556.02;4726629;59;1141018;-81
2024/01/29 00:41:40;;;;;;;50.20;18.30;;;;;;;1.59;100.00;102552.11;4763487;59;1141145;-81
2024/01/29 00:46:46;;;;;;;42.75;18.70;;;;;;;1.57;100.00;102543.42;4678278;59;1140892;-80
2024/01/29 00:51:51;;;;;;;56.53;21.65;;;;;;;1.59;100.00;102546.89;4651549;61;1140926;-80
2024/01/29 00:56:57;;;;;;;39.65;18.80;;;;;;;1.59;100.00;102546.89;4665136;60;1140845;-80
2024/01/29 01:02:03;;;;;;;50.83;20.97;;;;;;;1.60;100.00;102542.10;4652376;60;1140941;-80
2024/01/29 01:07:08;;;;;;;40.57;17.00;;;;;;;1.59;100.00;102541.67;4701482;60;1141087;-80
2024/01/29 01:12:14;;;;;;;42.77;16.47;;;;;;;1.55;100.00;102546.48;4595804;61;1140712;-80
2024/01/29 01:17:19;;;;;;;39.67;16.02;;;;;;;1.48;100.00;102537.86;4694439;60;1140937;-80
2024/01/29 01:22:25;;;;;;;39.87;15.57;;;;;;;1.43;100.00;102529.20;4599099;61;1141233;-80
2024/01/29 01:27:30;;;;;;;44.70;16.37;;;;;;;1.40;100.00;102530.52;4563529;62;1141252;-81
2024/01/29 01:32:36;;;;;;;50.10;18.90;;;;;;;1.38;100.00;102533.56;4673347;60;1141055;-81
2024/01/29 01:37:42;;;;;;;47.43;15.93;;;;;;;1.37;100.00;102531.44;4649376;61;1140718;-81
2024/01/29 01:42:48;;;;;;;45.10;16.87;;;;;;;1.37;100.00;102533.17;4611055;62;1140792;-80
2024/01/29 01:47:54;;;;;;;46.53;17.57;;;;;;;1.36;100.00;102531.00;4583926;62;1140798;-81
2024/01/29 01:53:01;;;;;;;40.50;17.80;;;;;;;1.38;100.00;102533.56;4544557;62;1141064;-80
2024/01/29 01:58:09;;;;;;;38.33;15.70;;;;;;;1.39;100.00;102522.27;4582381;61;1140904;-80
2024/01/29 02:03:15;;;;;;;47.60;16.77;;;;;;;1.39;100.00;102518.36;4585322;61;1141281;-81
2024/01/29 02:08:21;;;;;;;33.50;14.23;;;;;;;1.37;100.00;102514.48;4601954;62;1140686;-80
2024/01/29 02:13:27;;;;;;;43.03;15.93;;;;;;;1.36;100.00;102501.46;4511933;62;1140863;-80
2024/01/29 02:18:33;;;;;;;40.43;16.52;;;;;;;1.38;100.00;102503.59;4614746;62;1140653;-80
2024/01/29 02:23:45;;;;;;;34.27;16.17;;;;;;;1.38;100.00;102494.03;4614575;62;1140596;-80
2024/01/29 02:28:50;;;;;;;39.27;14.47;;;;;;;1.37;100.00;102491.02;4582127;61;1140735;-80
2024/01/29 02:33:56;;;;;;;38.13;16.95;;;;;;;1.35;100.00;102488.00;4827829;59;1140929;-80
2024/01/29 02:39:01;;;;;;;36.48;15.30;;;;;;;1.34;100.00;102496.70;4797344;59;1140905;-80
2024/01/29 02:44:07;;;;;;;39.67;17.37;;;;;;;1.32;100.00;102496.70;4699489;58;1140971;-80
2024/01/29 02:49:13;;;;;;;42.43;16.47;;;;;;;1.30;100.00;102483.25;4704239;60;1141510;-80
2024/01/29 02:54:18;;;;;;;44.70;17.07;;;;;;;1.30;100.00;102489.77;4690470;60;1141110;-80
2024/01/29 02:59:24;;;;;;;47.75;16.80;;;;;;;1.25;100.00;102481.97;4603006;61;1140956;-80
2024/01/29 03:04:29;;;;;;;46.73;18.83;;;;;;;1.23;100.00;102468.52;4535957;62;1140756;-80
2024/01/29 03:09:35;;;;;;;35.65;15.63;;;;;;;1.22;100.00;102469.43;4695918;59;1141403;-80
2024/01/29 03:14:41;;;;;;;44.87;18.90;;;;;;;1.19;100.00;102473.35;4580275;61;1141073;-80
2024/01/29 03:19:47;;;;;;;37.20;15.30;;;;;;;1.16;100.00;102470.33;4530653;62;1140557;-80
2024/01/29 03:24:52;;;;;;;45.55;15.30;;;;;;;1.16;100.00;102464.25;4578051;60;1140845;-81
2024/01/29 03:29:58;;;;;;;43.87;15.73;;;;;;;1.13;100.00;102455.15;4686527;59;1140919;-80
2024/01/29 03:35:03;;;;;;;36.40;15.87;;;;;;;1.11;100.00;102452.98;4709431;60;1141167;-80
2024/01/29 03:40:10;;;;;;;41.97;15.60;;;;;;;1.09;100.00;102451.69;4689533;61;1140775;-80
2024/01/29 03:45:16;;;;;;;39.17;15.10;;;;;;;1.07;100.00;102448.70;4716353;60;1141655;-80
2024/01/29 03:50:21;;;;;;;38.20;16.30;;;;;;;1.02;100.00;102450.03;4695842;60;1140927;-80
2024/01/29 03:55:27;;;;;;;27.30;14.03;;;;;;;1.02;100.00;102445.68;4714150;60;1140934;-80
2024/01/29 04:00:32;;;;;;;30.27;14.20;;;;;;;1.03;100.00;102447.41;4683448;60;1140942;-81
2024/01/29 04:05:38;;;;;;;34.77;13.10;;;;;;;1.04;100.00;102453.05;4699089;59;1141012;-80
2024/01/29 04:10:44;;;;;;;39.90;15.63;;;;;;;1.05;100.00;102448.70;4730939;59;1141129;-80
2024/01/29 04:15:49;;;;;;;34.13;14.73;;;;;;;1.03;100.00;102446.11;4711227;59;1141982;-80
2024/01/29 04:20:55;;;;;;;32.55;14.47;;;;;;;1.03;100.00;102438.73;4690285;60;1140852;-80
2024/01/29 04:26:00;;;;;;;33.02;15.53;;;;;;;1.00;100.00;102447.87;4700735;60;1140631;-80
2024/01/29 04:31:06;;;;;;;34.67;14.13;;;;;;;0.96;100.00;102439.20;4784739;59;1140648;-81
2024/01/29 04:36:17;;;;;;;41.97;16.73;;;;;;;0.95;100.00;102438.77;4799047;59;1141311;-80
2024/01/29 04:41:23;;;;;;;37.95;15.90;;;;;;;0.94;100.00;102434.44;4691894;60;1140878;-80
2024/01/29 04:46:28;;;;;;;33.77;13.73;;;;;;;0.94;100.00;102435.73;4714958;60;1140673;-80
2024/01/29 04:51:34;;;;;;;31.00;14.23;;;;;;;0.94;100.00;102436.17;4738254;60;1141075;-80
2024/01/29 04:56:40;;;;;;;34.23;13.20;;;;;;;0.91;100.00;102433.18;4658260;61;1140605;-80
2024/01/29 05:01:45;;;;;;;34.97;14.27;;;;;;;0.90;100.00;102431.89;4504371;61;1258853;-79
2024/01/29 05:06:51;;;;;;;41.50;16.17;;;;;;;0.89;100.00;102431.02;4607167;61;1140990;-73
2024/01/29 05:11:56;;;;;;;36.35;14.75;;;;;;;0.89;100.00;102430.16;4707993;60;1140657;-74
2024/01/29 05:17:02;;;;;;;33.77;14.83;;;;;;;0.85;100.00;102431.91;4759731;58;1140772;-71
2024/01/29 05:22:08;;;;;;;31.93;15.27;;;;;;;0.85;100.00;102429.30;4685733;60;1140953;-73
2024/01/29 05:27:13;;;;;;;34.77;14.13;;;;;;;0.84;100.00;102427.57;4712021;59;1141843;-72
2024/01/29 05:32:19;;;;;;;38.13;14.87;;;;;;;0.83;100.00;102426.27;4750414;58;1140704;-74
2024/01/29 05:37:25;;;;;;;32.40;14.83;;;;;;;0.81;100.00;102422.81;4671966;58;1141377;-73
2024/01/29 05:42:30;;;;;;;36.57;15.33;;;;;;;0.79;100.00;102414.14;4668384;60;1140631;-73
2024/01/29 05:47:37;;;;;;;71.90;43.10;;;;;;;0.77;100.00;102413.28;4580282;61;1141609;-75
2024/01/29 05:52:42;;;;;;;40.27;18.37;;;;;;;0.75;100.00;102414.62;4534271;62;1140807;-75
2024/01/29 05:57:49;;;;;;;33.85;17.42;;;;;;;0.75;100.00;102423.73;4583917;61;1140872;-75
2024/01/29 06:02:55;;;;;;;38.17;17.80;;;;;;;0.74;100.00;102428.95;4630067;60;1140928;-76
2024/01/29 06:08:01;;;;;;;36.63;16.27;;;;;;;0.75;100.00;102435.89;4743575;59;1141322;-73
2024/01/29 06:13:06;;;;;;;38.37;17.27;;;;;;;0.73;100.00;102422.02;4765962;59;1140620;-75
2024/01/29 06:18:12;;;;;;;40.83;19.80;;;;;;;0.69;100.00;102427.23;4702335;59;1141357;-72
2024/01/29 06:23:18;;;;;;;51.67;26.43;;;;;;;0.69;100.00;102428.54;4711880;59;1140612;-75
2024/01/29 06:28:23;;;;;;;40.50;21.00;;;;;;;0.67;100.00;102421.17;4720115;60;1140722;-75
2024/01/29 06:33:29;;;;;;;41.83;18.12;;;;;;;0.69;100.00;102423.77;4758384;59;1140782;-74
2024/01/29 06:38:34;;;;;;;37.07;18.70;;;;;;;0.68;100.00;102429.84;4732022;59;1140909;-72
2024/01/29 06:43:40;;;;;;;41.47;18.47;;;;;;;0.67;100.00;102435.48;4656120;61;1140995;-75
2024/01/29 06:48:46;;;;;;;45.00;20.57;;;;;;;0.68;100.00;102443.73;4766409;58;1141165;-74
2024/01/29 06:53:51;;;;;;;42.10;20.47;;;;;;;0.65;100.00;102450.25;4730380;59;1141740;-73
2024/01/29 06:58:57;;;;;;;41.00;20.57;;;;;;;0.63;100.00;102443.32;4711563;60;1140963;-72
2024/01/29 07:04:03;;;;;;;48.87;21.93;;;;;;;0.56;100.00;102439.91;4699741;60;1140750;-76
2024/01/29 07:09:09;;;;;;;42.20;19.50;;;;;;;0.60;100.00;102431.21;4742831;59;1140923;-72
2024/01/29 07:14:16;;;;;;;49.37;21.40;;;;;;;0.59;100.00;102429.48;4749440;59;1140829;-73
2024/01/29 07:19:33;;;;;;;47.60;21.90;;;;;;;0.57;100.00;102426.45;4729081;58;1141325;-71
2024/01/29 07:24:35;;;;;;;46.08;20.68;;;;;;;0.58;100.00;102424.28;4701850;60;1141126;-72
2024/01/29 07:29:40;;;;;;;51.87;23.70;;;;;;;0.62;100.00;102419.02;4689248;59;1140689;-73
2024/01/29 07:34:46;;;;;;;64.03;27.30;;;;;;;0.70;100.00;102417.25;4729591;59;1140589;-74
2024/01/29 07:39:52;;;;;;;45.83;21.73;;;;;;;0.75;100.00;102412.02;4675743;60;1141214;-74
2024/01/29 07:44:57;;;;;;;45.55;20.92;;;;;;;0.95;100.00;102415.76;4699445;61;1141120;-71
2024/01/29 07:50:03;;;;;;;48.77;22.83;;;;;;;1.21;100.00;102420.34;4708853;60;1141402;-75
2024/01/29 07:55:09;;;;;;;86.10;41.40;;;;;;;1.46;100.00;102413.59;4685769;60;1141839;-75
2024/01/29 08:00:15;;;;;;;57.63;26.13;;;;;;;1.66;100.00;102410.36;4686182;61;1141625;-72
2024/01/29 08:05:21;;;;;;;44.70;22.80;;;;;;;1.88;100.00;102407.05;4661010;59;1140859;-74
2024/01/29 08:10:26;;;;;;;63.73;32.33;;;;;;;2.07;100.00;102408.12;4790318;59;1140915;-74
2024/01/29 08:15:32;;;;;;;84.33;39.40;;;;;;;2.31;100.00;102401.72;4703478;60;1140811;-73
2024/01/29 08:20:37;;;;;;;126.77;58.57;;;;;;;2.49;100.00;102400.61;4696080;60;1140913;-73
2024/01/29 08:25:43;;;;;;;72.08;31.42;;;;;;;2.73;100.00;102405.49;4653609;59;1142979;-75
2024/01/29 08:30:49;;;;;;;155.33;75.57;;;;;;;2.92;100.00;102403.88;4720598;59;1141182;-71
2024/01/29 08:35:55;;;;;;;48.67;22.23;;;;;;;3.06;100.00;102408.00;4676136;60;1143505;-74
2024/01/29 08:41:02;;;;;;;73.40;31.70;;;;;;;3.22;100.00;102410.35;4589883;61;1140800;-73
2024/01/29 08:46:07;;;;;;;100.15;41.85;;;;;;;3.42;100.00;102408.27;4731887;60;1140734;-75
2024/01/29 08:51:13;;;;;;;118.33;45.23;;;;;;;3.67;100.00;102404.30;4705387;60;1142900;-73
2024/01/29 08:56:20;;;;;;;46.63;23.70;;;;;;;3.89;100.00;102414.79;4690847;60;1142820;-74
2024/01/29 09:01:25;;;;;;;42.90;22.23;;;;;;;3.85;100.00;102403.95;4716543;60;1140770;-74
2024/01/29 09:06:31;;;;;;;45.20;24.33;;;;;;;4.15;100.00;102409.45;4711296;60;1140842;-77
2024/01/29 09:11:36;;;;;;;44.77;22.07;;;;;;;4.33;100.00;102401.22;4737184;60;1140771;-75
2024/01/29 09:16:42;;;;;;;48.37;21.20;;;;;;;4.47;100.00;102400.91;4703913;60;1140901;-75
2024/01/29 09:21:51;;;;;;;45.90;21.80;;;;;;;4.55;100.00;102405.55;4702631;60;1140932;-82
2024/01/29 09:26:56;;;;;;;43.75;20.20;;;;;;;4.59;100.00;102411.98;4689243;59;1141150;-74
2024/01/29 09:32:02;;;;;;;38.55;20.30;;;;;;;4.54;100.00;102412.55;4676518;60;1140990;-76
2024/01/29 09:37:07;;;;;;;43.03;19.17;;;;;;;4.54;100.00;102405.14;4636510;61;1140974;-71
2024/01/29 09:42:24;;;;;;;48.83;19.37;;;;;;;4.55;100.00;102409.03;4590425;61;1140909;-72
2024/01/29 09:47:30;;;;;;;39.63;20.97;;;;;;;4.54;100.00;102396.83;4652038;61;1141095;-75
2024/01/29 09:52:37;;;;;;;35.57;17.73;;;;;;;4.49;100.00;102389.51;4729250;58;1140994;-76
2024/01/29 09:57:43;;;;;;;41.23;18.23;;;;;;;4.46;100.00;102396.56;4783355;58;1140980;-72
2024/01/29 10:02:52;;;;;;;49.38;21.00;;;;;;;4.49;100.00;102399.98;4765395;58;1140861;-75
2024/01/29 10:08:00;;;;;;;40.30;18.77;;;;;;;4.57;100.00;102396.77;4709619;58;1141024;-73
2024/01/29 10:13:08;;;;;;;45.55;19.87;;;;;;;4.71;100.00;102400.83;4749507;59;1141059;-77
2024/01/29 10:18:15;;;;;;;45.93;19.27;;;;;;;4.76;100.00;102389.31;4783183;58;1141662;-75
2024/01/29 10:23:21;;;;;;;44.97;20.80;;;;;;;4.72;100.00;102384.20;4783302;58;1140927;-74
2024/01/29 10:28:27;;;;;;;35.90;16.47;;;;;;;4.72;100.00;102382.89;4659739;60;1141816;-79
2024/01/29 10:33:33;;;;;;;38.93;19.80;;;;;;;4.76;100.00;102383.21;4650288;61;1141083;-79
2024/01/29 10:38:42;;;;;;;47.40;20.90;;;;;;;4.88;100.00;102382.94;4624962;60;1141120;-78
2024/01/29 10:43:50;;;;;;;43.83;22.97;;;;;;;4.99;100.00;102370.87;4689474;60;1141088;-78
2024/01/29 10:48:58;;;;;;;36.07;16.90;;;;;;;5.05;100.00;102362.37;4714811;59;1141221;-77
2024/01/29 10:54:04;;;;;;;41.17;20.63;;;;;;;5.18;100.00;102361.64;4763742;58;1140928;-78
2024/01/29 10:59:12;;;;;;;42.83;20.75;;;;;;;5.27;100.00;102360.08;4780398;58;1141116;-77
2024/01/29 11:04:19;;;;;;;33.23;15.10;;;;;;;5.36;100.00;102347.16;4759847;59;1141115;-79
2024/01/29 11:09:28;;;;;;;33.03;16.83;;;;;;;5.44;100.00;102338.64;4793326;59;1141444;-78
2024/01/29 11:14:34;;;;;;;34.57;16.53;;;;;;;5.52;100.00;102324.84;4687976;59;1141056;-77
2024/01/29 11:19:39;;;;;;;29.02;14.47;;;;;;;5.62;100.00;102324.57;4641764;60;1141089;-77
2024/01/29 11:24:45;;;;;;;31.67;15.27;;;;;;;5.72;100.00;102321.22;4729979;59;1140652;-78
2024/01/29 11:29:51;;;;;;;51.00;21.53;;;;;;;5.81;100.00;102306.95;4595031;60;1141152;-78
2024/01/29 11:34:57;;;;;;;33.50;16.83;;;;;;;5.90;100.00;102301.03;4767383;58;1140898;-78
2024/01/29 11:40:04;;;;;;;32.42;14.25;;;;;;;6.01;100.00;102294.13;4794544;59;1140999;-77
2024/01/29 11:45:09;;;;;;;43.00;19.02;;;;;;;6.09;100.00;102287.34;4784198;59;1141415;-77
2024/01/29 11:50:15;;;;;;;46.00;18.70;;;;;;;6.16;100.00;102282.30;4805131;59;1140819;-79
2024/01/29 12:01:32;;;;;;;44.23;24.67;;;;;;;6.34;100.00;102279.95;4497021;63;1140936;-78
2024/01/29 12:06:39;;;;;;;36.40;18.80;;;;;;;6.48;100.00;102283.45;4539294;63;1141416;-77
2024/01/29 12:11:45;;;;;;;50.40;22.33;;;;;;;6.60;100.00;102271.22;4504345;63;1141122;-78
2024/01/29 12:16:50;;;;;;;39.53;21.10;;;;;;;6.79;100.00;102278.04;4529017;63;1141079;-77
2024/01/29 12:21:56;;;;;;;35.43;17.77;;;;;;;6.93;100.00;102270.98;4565312;63;1140898;-77
2024/01/29 12:27:02;;;;;;;45.63;21.93;;;;;;;7.01;100.00;102265.03;4583089;62;1141160;-78
2024/01/29 12:32:12;;;;;;;55.93;23.80;;;;;;;7.06;100.00;102265.25;4517255;64;1141078;-79
2024/01/29 12:37:26;;;;;;;45.93;22.80;;;;;;;7.11;100.00;102256.34;4611779;58;1140804;-78
2024/01/29 12:42:32;;;;;;;49.30;21.87;;;;;;;7.19;100.00;102249.88;4758874;58;1140886;-77
2024/01/29 12:47:37;;;;;;;45.67;22.43;;;;;;;7.24;100.00;102254.53;4758018;58;1141149;-77
2024/01/29 12:52:44;;;;;;;46.53;20.07;;;;;;;7.27;100.00;102247.84;4744904;58;1140839;-78
2024/01/29 12:57:50;;;;;;;46.90;20.53;;;;;;;7.24;100.00;102247.95;4770093;58;1140898;-78
2024/01/29 13:02:56;;;;;;;55.47;26.10;;;;;;;7.19;100.00;102239.35;4748164;58;1140819;-78
2024/01/29 13:08:02;;;;;;;45.33;22.30;;;;;;;7.22;100.00;102237.93;4775423;58;1140849;-77
2024/01/29 13:13:09;;;;;;;46.07;21.63;;;;;;;7.20;100.00;102242.84;4756843;58;1140925;-76
2024/01/29 13:18:15;;;;;;;46.40;20.60;;;;;;;7.13;100.00;102235.64;4703126;60;1140774;-77
2024/01/29 13:23:20;;;;;;;38.45;18.87;;;;;;;7.05;100.00;102229.78;4718001;60;1140715;-78
2024/01/29 13:28:26;;;;;;;48.40;19.70;;;;;;;6.93;100.00;102240.74;4687758;60;1140927;-76
2024/01/29 13:33:31;;;;;;;48.20;21.80;;;;;;;6.81;100.00;102236.77;4712397;60;1140764;-79
2024/01/29 13:38:37;;;;;;;57.77;25.20;;;;;;;6.72;100.00;102235.79;4691876;60;1140912;-77
2024/01/29 13:43:43;;;;;;;50.77;22.93;;;;;;;6.65;100.00;102236.44;4659918;60;1140800;-80
2024/01/29 13:48:48;;;;;;;58.25;22.02;;;;;;;6.58;100.00;102231.42;4711608;60;1140624;-77
2024/01/29 13:53:54;;;;;;;79.23;32.67;;;;;;;6.56;100.00;102228.88;4692206;60;1141002;-80
2024/01/29 13:58:59;;;;;;;58.20;26.73;;;;;;;6.55;100.00;102216.64;4617154;61;1140885;-77
2024/01/29 14:04:05;;;;;;;53.27;24.07;;;;;;;6.57;100.00;102217.91;4724282;60;1140512;-79
2024/01/29 14:09:11;;;;;;;61.65;25.50;;;;;;;6.58;100.00;102222.22;4688177;61;1140717;-78
2024/01/29 14:14:17;;;;;;;49.97;20.93;;;;;;;6.59;100.00;102226.57;4691139;60;1140737;-79
2024/01/29 14:19:22;;;;;;;54.60;22.30;;;;;;;6.52;100.00;102215.88;4698019;60;1140911;-77
2024/01/29 14:24:28;;;;;;;56.53;24.67;;;;;;;6.47;100.00;102218.65;4778352;59;1140587;-76
2024/01/29 14:29:34;;;;;;;50.93;20.10;;;;;;;6.44;100.00;102225.31;4668290;61;1140636;-77
2024/01/29 14:34:39;;;;;;;53.30;24.07;;;;;;;6.37;100.00;102227.76;4553270;61;1140738;-77
2024/01/29 14:39:45;;;;;;;75.87;35.30;;;;;;;6.31;100.00;102236.69;4560024;61;1140866;-76
2024/01/29 14:44:51;;;;;;;67.37;27.13;;;;;;;6.27;100.00;102242.08;4637866;61;1140682;-75
2024/01/29 14:50:06;;;;;;;86.00;34.63;;;;;;;6.26;100.00;102239.08;5144034;56;97262;-77
2024/01/29 14:55:11;;;;;;;83.27;31.63;;;;;;;6.18;100.00;102248.96;4992227;57;1136680;-77
2024/01/29 15:00:17;;;;;;;59.60;24.98;;;;;;;6.18;100.00;102248.96;4910723;57;1159122;-75
2024/01/29 15:05:23;;;;;;;54.20;21.73;;;;;;;6.18;100.00;102239.77;4962342;56;1143258;-77
2024/01/29 15:10:28;;;;;;;48.40;22.93;;;;;;;6.16;100.00;102242.89;4985080;57;1140938;-77
2024/01/29 15:15:34;;;;;;;51.65;21.52;;;;;;;6.10;100.00;102232.59;4997910;57;1140853;-77
2024/01/29 15:20:39;;;;;;;45.07;21.10;;;;;;;6.04;100.00;102231.47;4983815;57;1140832;-77
2024/01/29 15:25:45;;;;;;;39.37;19.80;;;;;;;5.94;100.00;102231.77;5023476;56;1140736;-77
2024/01/29 15:30:50;;;;;;;45.90;21.23;;;;;;;5.87;100.00;102233.27;5060956;57;1140931;-76
2024/01/29 15:35:56;;;;;;;49.80;21.97;;;;;;;5.77;100.00;102231.84;4998352;57;1141133;-76
2024/01/29 15:41:02;;;;;;;42.67;21.03;;;;;;;5.68;100.00;102222.45;4983488;56;1140980;-81
2024/01/29 15:46:08;;;;;;;39.30;18.03;;;;;;;5.61;100.00;102225.73;4985975;57;1140763;-78
2024/01/29 15:51:13;;;;;;;48.27;20.40;;;;;;;5.56;100.00;102224.14;4972665;56;1140844;-78
2024/01/29 15:56:19;;;;;;;52.03;22.00;;;;;;;5.51;100.00;102221.64;5039525;56;1141164;-79
2024/01/29 16:01:25;;;;;;;51.83;24.52;;;;;;;5.47;100.00;102217.41;5024851;57;1141184;-77
2024/01/29 16:06:31;;;;;;;44.90;21.33;;;;;;;5.43;100.00;102216.22;5042991;56;1141123;-80
2024/01/29 16:11:37;;;;;;;49.65;21.10;;;;;;;5.40;100.00;102222.86;5036333;56;1141039;-80
2024/01/29 16:16:42;;;;;;;62.00;25.17;;;;;;;5.40;100.00;102219.79;5052253;57;1140414;-80
2024/01/29 16:21:48;;;;;;;68.50;29.83;;;;;;;5.38;100.00;102220.28;5063765;56;1140812;-80
2024/01/29 16:26:54;;;;;;;68.47;31.93;;;;;;;5.34;100.00;102225.23;5008115;57;1140583;-79
2024/01/29 16:32:01;;;;;;;70.57;31.07;;;;;;;5.24;100.00;102227.23;5043533;56;1140903;-78
2024/01/29 16:37:07;;;;;;;69.90;29.35;;;;;;;5.14;100.00;102227.09;5027126;56;1141072;-79
2024/01/29 16:42:13;;;;;;;77.45;35.08;;;;;;;5.01;100.00;102223.09;5037550;56;1140962;-78
2024/01/29 16:47:18;;;;;;;71.33;29.57;;;;;;;4.95;100.00;102233.28;5060186;57;1141224;-79
2024/01/29 16:52:25;;;;;;;88.10;38.57;;;;;;;4.88;100.00;102233.06;4996774;57;1140998;-79
2024/01/29 16:57:32;;;;;;;90.47;37.27;;;;;;;4.83;100.00;102225.75;4995846;57;1140724;-78
2024/01/29 17:02:37;;;;;;;71.20;30.90;;;;;;;4.82;100.00;102229.73;4975746;57;1140746;-79
2024/01/29 17:07:50;;;;;;;95.13;42.57;;;;;;;4.80;100.00;102228.45;4976353;56;1140729;-78
2024/01/29 17:12:55;;;;;;;119.30;53.47;;;;;;;4.75;100.00;102232.95;4993241;58;1140915;-78
2024/01/29 17:18:01;;;;;;;125.05;57.83;;;;;;;4.72;100.00;102243.53;5024661;57;1143062;-80
2024/01/29 17:23:06;;;;;;;929.40;515.90;;;;;;;4.66;100.00;102244.13;4998504;57;1142922;-79
2024/01/29 17:28:12;;;;;;;102.80;50.27;;;;;;;4.63;100.00;102244.20;5044981;56;1153688;-78
2024/01/29 17:33:17;;;;;;;138.52;63.30;;;;;;;4.55;100.00;102238.72;5028174;57;1143091;-78
2024/01/29 17:38:23;;;;;;;83.67;35.88;;;;;;;4.46;100.00;102240.69;4983696;57;1143075;-78
2024/01/29 17:43:29;;;;;;;84.50;34.90;;;;;;;4.45;100.00;102241.14;4979800;57;1140932;-79
2024/01/29 17:48:37;;;;;;;86.53;39.43;;;;;;;4.46;100.00;102241.55;5019918;56;1141007;-79
2024/01/29 17:53:43;;;;;;;105.37;47.40;;;;;;;4.41;100.00;102234.72;5000437;57;1140746;-78
2024/01/29 17:58:49;;;;;;;104.57;48.57;;;;;;;4.35;100.00;102224.38;4944785;56;1143149;-77
2024/01/29 18:03:54;;;;;;;80.20;35.13;;;;;;;4.30;100.00;102231.48;4919873;57;1142700;-78
2024/01/29 18:09:00;;;;;;;99.30;37.67;;;;;;;4.26;100.00;102228.55;4905558;57;1140652;-77
2024/01/29 18:14:06;;;;;;;95.73;43.13;;;;;;;4.23;100.00;102232.95;4888483;57;1140908;-78
2024/01/29 18:19:12;;;;;;;81.37;35.78;;;;;;;4.23;100.00;102230.78;4972003;57;1143868;-77
2024/01/29 18:24:19;;;;;;;78.60;33.20;;;;;;;4.30;100.00;102234.09;4945384;58;1175188;-78
2024/01/29 18:29:26;;;;;;;64.70;31.37;;;;;;;4.35;100.00;102221.77;4956816;57;1141170;-78
2024/01/29 18:34:37;;;;;;;70.32;30.48;;;;;;;4.43;100.00;102227.69;5071074;56;1141001;-77
2024/01/29 18:39:39;;;;;;;71.20;28.83;;;;;;;4.44;100.00;102217.59;5030883;56;1141122;-77
2024/01/29 18:44:45;;;;;;;59.93;26.15;;;;;;;4.43;100.00;102213.28;5010810;56;1140634;-78
2024/01/29 18:49:50;;;;;;;90.20;37.00;;;;;;;4.42;100.00;102225.52;5028499;56;1140798;-77
2024/01/29 18:54:56;;;;;;;462.92;124.00;;;;;;;4.40;100.00;102231.24;5048140;57;1140886;-78
2024/01/29 19:00:01;;;;;;;742.50;203.23;;;;;;;4.37;100.00;102219.52;5019605;57;1145207;-79
2024/01/29 19:05:07;;;;;;;710.97;194.23;;;;;;;4.33;100.00;102221.80;5065866;55;1144909;-79
2024/01/29 19:10:14;;;;;;;99.10;38.73;;;;;;;4.32;100.00;102217.45;5027885;56;1144932;-77
2024/01/29 19:15:19;;;;;;;123.13;45.93;;;;;;;4.36;100.00;102212.56;4947227;58;1140928;-78
2024/01/29 19:20:25;;;;;;;80.77;31.10;;;;;;;4.40;100.00;102220.77;4948042;57;1143088;-79
2024/01/29 19:25:34;;;;;;;72.53;26.40;;;;;;;4.45;100.00;102221.48;5019393;56;1140797;-77
2024/01/29 19:30:46;;;;;;;57.77;24.03;;;;;;;4.42;100.00;102223.34;4991930;57;1140913;-78
2024/01/29 19:35:50;;;;;;;162.47;52.43;;;;;;;4.39;100.00;102212.94;4976105;57;1140910;-78
2024/01/29 19:40:54;;;;;;;77.87;25.83;;;;;;;4.34;100.00;102210.88;4985879;56;1143161;-79
2024/01/29 19:46:00;;;;;;;49.98;19.98;;;;;;;4.29;100.00;102206.19;4943954;56;1140694;-79
2024/01/29 19:51:07;;;;;;;60.03;22.60;;;;;;;4.26;100.00;102204.53;4958866;56;1140940;-80
2024/01/29 19:56:12;;;;;;;71.53;26.00;;;;;;;4.29;100.00;102197.88;4943304;57;1140811;-77
2024/01/29 20:01:18;;;;;;;82.08;32.05;;;;;;;4.39;100.00;102199.84;4868178;58;1225754;-78
2024/01/29 20:06:23;;;;;;;60.23;24.90;;;;;;;4.43;100.00;102201.02;4912014;58;1140799;-78
2024/01/29 20:11:29;;;;;;;114.52;47.33;;;;;;;4.46;100.00;102194.39;4916480;58;1148327;-78
2024/01/29 20:16:38;;;;;;;87.77;36.20;;;;;;;4.47;100.00;102203.11;4923113;58;1142935;-78
2024/01/29 20:21:44;;;;;;;85.20;37.17;;;;;;;4.43;100.00;102205.42;4892091;58;1141265;-78
2024/01/29 20:26:49;;;;;;;79.83;35.70;;;;;;;4.39;100.00;102199.84;4913414;57;1140913;-83
2024/01/29 20:31:56;;;;;;;67.40;27.83;;;;;;;4.37;100.00;102212.97;4950458;57;1140791;-85
2024/01/29 20:37:02;;;;;;;86.53;36.23;;;;;;;4.37;100.00;102216.91;4982698;56;1140765;-81
2024/01/29 20:42:08;;;;;;;87.30;36.87;;;;;;;4.36;100.00;102213.01;4970750;57;1140713;-80
2024/01/29 20:47:13;;;;;;;101.50;42.50;;;;;;;4.33;100.00;102210.01;4990576;58;1140944;-82
2024/01/29 20:52:19;;;;;;;71.33;29.82;;;;;;;4.28;100.00;102207.11;4970329;58;1143303;-79
2024/01/29 20:57:25;;;;;;;51.83;20.60;;;;;;;4.19;100.00;102213.41;4951386;58;1140801;-83
2024/01/29 21:02:30;;;;;;;46.07;19.60;;;;;;;4.16;100.00;102213.48;4908953;58;1141152;-82
2024/01/29 21:07:36;;;;;;;61.93;23.80;;;;;;;4.10;100.00;102214.52;4972457;56;1141492;-83
2024/01/29 21:12:41;;;;;;;57.27;22.40;;;;;;;4.05;100.00;102211.12;4972252;57;1141235;-80
2024/01/29 21:17:47;;;;;;;49.15;19.90;;;;;;;4.01;100.00;102219.08;5007297;56;1140998;-79
2024/01/29 21:22:53;;;;;;;42.27;19.00;;;;;;;3.97;100.00;102218.31;5052491;57;1140734;-82
2024/01/29 21:27:59;;;;;;;38.87;17.50;;;;;;;3.94;100.00;102223.61;5051113;57;1141204;-84
2024/01/29 21:33:04;;;;;;;39.53;18.47;;;;;;;3.86;100.00;102215.92;5070807;56;1140552;-81
2024/01/29 21:38:12;;;;;;;36.57;15.17;;;;;;;3.82;100.00;102214.70;5049664;57;1140884;-80
2024/01/29 21:43:17;;;;;;;49.00;20.20;;;;;;;3.82;100.00;102212.09;4993766;57;1141245;-81
2024/01/29 21:48:23;;;;;;;46.60;20.32;;;;;;;3.80;100.00;102204.30;4970538;58;1140871;-84
2024/01/29 21:53:29;;;;;;;37.23;17.07;;;;;;;3.76;100.00;102200.47;4990522;58;1140669;-84
2024/01/29 21:58:34;;;;;;;45.20;17.53;;;;;;;3.74;100.00;102199.64;4970315;58;1141204;-79
2024/01/29 22:03:40;;;;;;;38.23;16.83;;;;;;;3.73;100.00;102207.94;4953440;58;1141163;-82
2024/01/29 22:08:45;;;;;;;40.47;17.57;;;;;;;3.72;100.00;102204.05;4971109;58;1140952;-85
2024/01/29 22:13:51;;;;;;;36.33;14.70;;;;;;;3.68;100.00;102198.02;4951479;58;1141188;-81
2024/01/29 22:18:57;;;;;;;35.40;17.23;;;;;;;3.69;100.00;102200.18;4989353;56;1140502;-81
2024/01/29 22:24:03;;;;;;;43.57;18.10;;;;;;;3.67;100.00;102188.88;5052841;56;1140654;-83
2024/01/29 22:29:08;;;;;;;45.83;19.80;;;;;;;3.62;100.00;102189.01;5044915;56;1140886;-82
2024/01/29 22:34:14;;;;;;;43.63;19.17;;;;;;;3.60;100.00;102193.41;5039100;56;1141013;-81
2024/01/29 22:39:19;;;;;;;43.83;17.80;;;;;;;3.60;100.00;102197.33;4947750;57;1140556;-83
2024/01/29 22:44:25;;;;;;;43.92;18.12;;;;;;;3.56;100.00;102191.75;4905796;58;1141181;-77